sensor_id;sensor_type;location;lat;lon;timestamp;pressure;altitude;pressure_sealevel;temperature
75811;BMP280;64449;50.016;19.954;2023-08-30T00:01:00;97635.48;;;22.39
75811;BMP280;64449;50.016;19.954;2023-08-30T00:03:25;97634.35;;;22.39
75811;BMP280;64449;50.016;19.954;2023-08-30T00:05:51;97631.42;;;22.39
75811;BMP280;64449;50.016;19.954;2023-08-30T00:08:16;97634.59;;;22.39
75811;BMP280;64449;50.016;19.954;2023-08-30T00:10:48;97635.43;;;22.38
75811;BMP280;64449;50.016;19.954;2023-08-30T00:13:13;97630.14;;;22.37
75811;BMP280;64449;50.016;19.954;2023-08-30T00:15:39;97625.30;;;22.36
75811;BMP280;64449;50.016;19.954;2023-08-30T00:18:04;97620.46;;;22.36
75811;BMP280;64449;50.016;19.954;2023-08-30T00:20:30;97614.20;;;22.36
75811;BMP280;64449;50.016;19.954;2023-08-30T00:22:56;97611.48;;;22.36
75811;BMP280;64449;50.016;19.954;2023-08-30T00:25:21;97609.52;;;22.35
75811;BMP280;64449;50.016;19.954;2023-08-30T00:27:46;97612.48;;;22.33
75811;BMP280;64449;50.016;19.954;2023-08-30T00:30:12;97615.52;;;22.31
75811;BMP280;64449;50.016;19.954;2023-08-30T00:32:37;97620.14;;;22.28
75811;BMP280;64449;50.016;19.954;2023-08-30T00:35:03;97623.05;;;22.22
75811;BMP280;64449;50.016;19.954;2023-08-30T00:37:29;97626.54;;;22.17
75811;BMP280;64449;50.016;19.954;2023-08-30T00:39:54;97629.11;;;22.12
75811;BMP280;64449;50.016;19.954;2023-08-30T00:42:19;97627.06;;;22.09
75811;BMP280;64449;50.016;19.954;2023-08-30T00:44:45;97622.97;;;22.06
75811;BMP280;64449;50.016;19.954;2023-08-30T00:47:10;97621.25;;;22.05
75811;BMP280;64449;50.016;19.954;2023-08-30T00:49:36;97620.62;;;22.06
75811;BMP280;64449;50.016;19.954;2023-08-30T00:52:04;97616.60;;;22.04
75811;BMP280;64449;50.016;19.954;2023-08-30T00:54:30;97614.76;;;22.03
75811;BMP280;64449;50.016;19.954;2023-08-30T00:56:56;97609.10;;;22.04
75811;BMP280;64449;50.016;19.954;2023-08-30T00:59:22;97610.77;;;22.05
75811;BMP280;64449;50.016;19.954;2023-08-30T01:01:48;97612.17;;;22.06
75811;BMP280;64449;50.016;19.954;2023-08-30T01:04:14;97612.07;;;22.07
75811;BMP280;64449;50.016;19.954;2023-08-30T01:06:39;97615.34;;;22.08
75811;BMP280;64449;50.016;19.954;2023-08-30T01:09:05;97615.52;;;22.08
75811;BMP280;64449;50.016;19.954;2023-08-30T01:14:40;97603.39;;;22.11
75811;BMP280;64449;50.016;19.954;2023-08-30T01:17:10;97601.04;;;22.11
75811;BMP280;64449;50.016;19.954;2023-08-30T01:25:33;97605.16;;;22.10
75811;BMP280;64449;50.016;19.954;2023-08-30T01:28:04;97606.83;;;22.10
75811;BMP280;64449;50.016;19.954;2023-08-30T01:30:32;97610.42;;;22.10
75811;BMP280;64449;50.016;19.954;2023-08-30T01:33:00;97604.75;;;22.10
75811;BMP280;64449;50.016;19.954;2023-08-30T01:35:26;97600.45;;;22.08
75811;BMP280;64449;50.016;19.954;2023-08-30T01:37:58;97602.52;;;22.07
75811;BMP280;64449;50.016;19.954;2023-08-30T01:40:27;97602.11;;;22.08
75811;BMP280;64449;50.016;19.954;2023-08-30T01:42:53;97604.17;;;22.08
75811;BMP280;64449;50.016;19.954;2023-08-30T01:45:20;97601.61;;;22.09
75811;BMP280;64449;50.016;19.954;2023-08-30T01:47:47;97600.10;;;22.08
75811;BMP280;64449;50.016;19.954;2023-08-30T01:50:14;97596.69;;;22.06
75811;BMP280;64449;50.016;19.954;2023-08-30T01:52:40;97597.48;;;22.05
75811;BMP280;64449;50.016;19.954;2023-08-30T01:55:08;97598.98;;;22.05
75811;BMP280;64449;50.016;19.954;2023-08-30T01:57:33;97603.82;;;22.04
75811;BMP280;64449;50.016;19.954;2023-08-30T01:59:59;97604.02;;;22.04
75811;BMP280;64449;50.016;19.954;2023-08-30T02:02:28;97603.48;;;22.05
75811;BMP280;64449;50.016;19.954;2023-08-30T02:04:54;97606.51;;;22.05
75811;BMP280;64449;50.016;19.954;2023-08-30T02:07:24;97603.48;;;22.04
75811;BMP280;64449;50.016;19.954;2023-08-30T02:10:08;97607.66;;;22.06
75811;BMP280;64449;50.016;19.954;2023-08-30T02:12:41;97606.58;;;22.07
75811;BMP280;64449;50.016;19.954;2023-08-30T02:15:08;97607.77;;;22.06
75811;BMP280;64449;50.016;19.954;2023-08-30T02:17:37;97603.14;;;22.06
75811;BMP280;64449;50.016;19.954;2023-08-30T02:20:03;97602.29;;;22.05
75811;BMP280;64449;50.016;19.954;2023-08-30T02:22:30;97604.07;;;22.05
75811;BMP280;64449;50.016;19.954;2023-08-30T02:24:56;97601.55;;;22.06
75811;BMP280;64449;50.016;19.954;2023-08-30T02:27:21;97603.34;;;22.06
75811;BMP280;64449;50.016;19.954;2023-08-30T02:29:46;97600.11;;;22.07
75811;BMP280;64449;50.016;19.954;2023-08-30T02:32:12;97596.99;;;22.08
75811;BMP280;64449;50.016;19.954;2023-08-30T02:34:37;97597.86;;;22.08
75811;BMP280;64449;50.016;19.954;2023-08-30T02:37:03;97596.31;;;22.09
75811;BMP280;64449;50.016;19.954;2023-08-30T02:39:28;97594.49;;;22.09
75811;BMP280;64449;50.016;19.954;2023-08-30T02:41:53;97595.60;;;22.09
75811;BMP280;64449;50.016;19.954;2023-08-30T02:44:19;97597.72;;;22.09
75811;BMP280;64449;50.016;19.954;2023-08-30T02:46:44;97596.48;;;22.10
75811;BMP280;64449;50.016;19.954;2023-08-30T02:49:09;97592.63;;;22.10
75811;BMP280;64449;50.016;19.954;2023-08-30T02:51:36;97589.41;;;22.10
75811;BMP280;64449;50.016;19.954;2023-08-30T02:54:02;97586.59;;;22.10
75811;BMP280;64449;50.016;19.954;2023-08-30T02:56:28;97584.11;;;22.10
75811;BMP280;64449;50.016;19.954;2023-08-30T02:58:53;97579.15;;;22.10
75811;BMP280;64449;50.016;19.954;2023-08-30T03:01:18;97575.20;;;22.10
75811;BMP280;64449;50.016;19.954;2023-08-30T03:03:45;97573.46;;;22.10
75811;BMP280;64449;50.016;19.954;2023-08-30T03:06:11;97575.08;;;22.08
75811;BMP280;64449;50.016;19.954;2023-08-30T03:08:39;97578.60;;;22.06
75811;BMP280;64449;50.016;19.954;2023-08-30T03:11:11;97584.30;;;22.03
75811;BMP280;64449;50.016;19.954;2023-08-30T03:13:37;97582.10;;;21.99
75811;BMP280;64449;50.016;19.954;2023-08-30T03:16:16;97584.86;;;21.95
75811;BMP280;64449;50.016;19.954;2023-08-30T03:18:42;97586.80;;;21.93
75811;BMP280;64449;50.016;19.954;2023-08-30T03:21:09;97586.36;;;21.91
75811;BMP280;64449;50.016;19.954;2023-08-30T03:23:35;97588.77;;;21.88
75811;BMP280;64449;50.016;19.954;2023-08-30T03:26:21;97585.67;;;21.86
75811;BMP280;64449;50.016;19.954;2023-08-30T03:28:46;97584.55;;;21.85
75811;BMP280;64449;50.016;19.954;2023-08-30T03:31:14;97583.08;;;21.83
75811;BMP280;64449;50.016;19.954;2023-08-30T03:33:40;97579.88;;;21.84
75811;BMP280;64449;50.016;19.954;2023-08-30T03:36:12;97578.20;;;21.85
75811;BMP280;64449;50.016;19.954;2023-08-30T03:38:39;97582.93;;;21.86
75811;BMP280;64449;50.016;19.954;2023-08-30T03:41:05;97589.14;;;21.83
75811;BMP280;64449;50.016;19.954;2023-08-30T03:43:31;97597.85;;;21.80
75811;BMP280;64449;50.016;19.954;2023-08-30T03:45:58;97597.91;;;21.76
75811;BMP280;64449;50.016;19.954;2023-08-30T03:48:23;97599.23;;;21.72
75811;BMP280;64449;50.016;19.954;2023-08-30T03:50:49;97596.98;;;21.69
75811;BMP280;64449;50.016;19.954;2023-08-30T03:53:14;97597.15;;;21.67
75811;BMP280;64449;50.016;19.954;2023-08-30T03:55:40;97596.80;;;21.65
75811;BMP280;64449;50.016;19.954;2023-08-30T03:58:06;97597.89;;;21.66
75811;BMP280;64449;50.016;19.954;2023-08-30T04:00:31;97599.31;;;21.66
75811;BMP280;64449;50.016;19.954;2023-08-30T04:02:56;97598.57;;;21.65
75811;BMP280;64449;50.016;19.954;2023-08-30T04:05:22;97600.34;;;21.65
75811;BMP280;64449;50.016;19.954;2023-08-30T04:07:47;97603.91;;;21.64
75811;BMP280;64449;50.016;19.954;2023-08-30T04:10:13;97604.58;;;21.63
75811;BMP280;64449;50.016;19.954;2023-08-30T04:12:38;97603.36;;;21.62
75811;BMP280;64449;50.016;19.954;2023-08-30T04:15:04;97601.55;;;21.62
75811;BMP280;64449;50.016;19.954;2023-08-30T04:17:29;97599.25;;;21.62
75811;BMP280;64449;50.016;19.954;2023-08-30T04:19:54;97599.97;;;21.61
75811;BMP280;64449;50.016;19.954;2023-08-30T04:22:20;97602.81;;;21.59
75811;BMP280;64449;50.016;19.954;2023-08-30T04:24:46;97603.98;;;21.59
75811;BMP280;64449;50.016;19.954;2023-08-30T04:27:12;97605.19;;;21.58
75811;BMP280;64449;50.016;19.954;2023-08-30T04:29:37;97608.52;;;21.55
75811;BMP280;64449;50.016;19.954;2023-08-30T04:32:03;97606.16;;;21.50
75811;BMP280;64449;50.016;19.954;2023-08-30T04:34:28;97607.30;;;21.47
75811;BMP280;64449;50.016;19.954;2023-08-30T04:36:55;97611.32;;;21.46
75811;BMP280;64449;50.016;19.954;2023-08-30T04:39:21;97613.70;;;21.45
75811;BMP280;64449;50.016;19.954;2023-08-30T04:41:46;97615.88;;;21.44
75811;BMP280;64449;50.016;19.954;2023-08-30T04:44:12;97609.64;;;21.42
75811;BMP280;64449;50.016;19.954;2023-08-30T04:46:37;97605.54;;;21.40
75811;BMP280;64449;50.016;19.954;2023-08-30T04:49:02;97602.70;;;21.39
75811;BMP280;64449;50.016;19.954;2023-08-30T04:51:28;97600.98;;;21.38
75811;BMP280;64449;50.016;19.954;2023-08-30T04:53:54;97602.05;;;21.38
75811;BMP280;64449;50.016;19.954;2023-08-30T04:56:19;97599.88;;;21.36
75811;BMP280;64449;50.016;19.954;2023-08-30T04:58:44;97596.86;;;21.37
75811;BMP280;64449;50.016;19.954;2023-08-30T05:01:10;97593.95;;;21.40
75811;BMP280;64449;50.016;19.954;2023-08-30T05:03:38;97590.44;;;21.43
75811;BMP280;64449;50.016;19.954;2023-08-30T05:06:03;97590.60;;;21.47
75811;BMP280;64449;50.016;19.954;2023-08-30T05:08:29;97597.77;;;21.52
75811;BMP280;64449;50.016;19.954;2023-08-30T05:10:54;97601.66;;;21.54
75811;BMP280;64449;50.016;19.954;2023-08-30T05:13:20;97601.43;;;21.57
75811;BMP280;64449;50.016;19.954;2023-08-30T05:15:45;97606.39;;;21.60
75811;BMP280;64449;50.016;19.954;2023-08-30T05:18:11;97608.70;;;21.63
75811;BMP280;64449;50.016;19.954;2023-08-30T05:20:36;97608.07;;;21.64
75811;BMP280;64449;50.016;19.954;2023-08-30T05:23:02;97608.53;;;21.65
75811;BMP280;64449;50.016;19.954;2023-08-30T05:25:28;97608.04;;;21.64
75811;BMP280;64449;50.016;19.954;2023-08-30T05:27:53;97607.40;;;21.65
75811;BMP280;64449;50.016;19.954;2023-08-30T05:30:19;97610.01;;;21.64
75811;BMP280;64449;50.016;19.954;2023-08-30T05:32:44;97614.33;;;21.62
75811;BMP280;64449;50.016;19.954;2023-08-30T05:35:10;97616.52;;;21.59
75811;BMP280;64449;50.016;19.954;2023-08-30T05:37:35;97617.17;;;21.56
75811;BMP280;64449;50.016;19.954;2023-08-30T05:40:01;97618.12;;;21.52
75811;BMP280;64449;50.016;19.954;2023-08-30T05:42:26;97618.58;;;21.48
75811;BMP280;64449;50.016;19.954;2023-08-30T05:44:53;97621.45;;;21.45
75811;BMP280;64449;50.016;19.954;2023-08-30T05:47:18;97617.55;;;21.42
75811;BMP280;64449;50.016;19.954;2023-08-30T05:49:44;97621.73;;;21.40
75811;BMP280;64449;50.016;19.954;2023-08-30T05:52:09;97622.11;;;21.40
75811;BMP280;64449;50.016;19.954;2023-08-30T05:54:35;97623.96;;;21.40
75811;BMP280;64449;50.016;19.954;2023-08-30T05:57:00;97626.95;;;21.41
75811;BMP280;64449;50.016;19.954;2023-08-30T05:59:26;97629.06;;;21.40
75811;BMP280;64449;50.016;19.954;2023-08-30T06:01:51;97625.68;;;21.38
75811;BMP280;64449;50.016;19.954;2023-08-30T06:04:17;97627.73;;;21.36
75811;BMP280;64449;50.016;19.954;2023-08-30T06:06:42;97630.30;;;21.36
75811;BMP280;64449;50.016;19.954;2023-08-30T06:09:07;97628.83;;;21.37
75811;BMP280;64449;50.016;19.954;2023-08-30T06:11:33;97626.17;;;21.37
75811;BMP280;64449;50.016;19.954;2023-08-30T06:13:58;97630.09;;;21.41
75811;BMP280;64449;50.016;19.954;2023-08-30T06:16:25;97631.14;;;21.45
75811;BMP280;64449;50.016;19.954;2023-08-30T06:18:50;97633.20;;;21.51
75811;BMP280;64449;50.016;19.954;2023-08-30T06:21:16;97636.75;;;21.55
75811;BMP280;64449;50.016;19.954;2023-08-30T06:23:41;97635.77;;;21.57
75811;BMP280;64449;50.016;19.954;2023-08-30T06:26:07;97642.70;;;21.59
75811;BMP280;64449;50.016;19.954;2023-08-30T06:28:32;97643.95;;;21.59
75811;BMP280;64449;50.016;19.954;2023-08-30T06:30:57;97643.81;;;21.58
75811;BMP280;64449;50.016;19.954;2023-08-30T06:33:23;97641.23;;;21.58
75811;BMP280;64449;50.016;19.954;2023-08-30T06:35:48;97641.99;;;21.58
75811;BMP280;64449;50.016;19.954;2023-08-30T06:38:16;97643.48;;;21.58
75811;BMP280;64449;50.016;19.954;2023-08-30T06:40:45;97643.34;;;21.61
75811;BMP280;64449;50.016;19.954;2023-08-30T06:43:12;97643.55;;;21.64
75811;BMP280;64449;50.016;19.954;2023-08-30T06:45:38;97641.76;;;21.67
75811;BMP280;64449;50.016;19.954;2023-08-30T06:48:06;97644.44;;;21.69
75811;BMP280;64449;50.016;19.954;2023-08-30T06:50:32;97648.95;;;21.71
75811;BMP280;64449;50.016;19.954;2023-08-30T06:52:58;97651.38;;;21.73
75811;BMP280;64449;50.016;19.954;2023-08-30T06:55:23;97653.02;;;21.72
75811;BMP280;64449;50.016;19.954;2023-08-30T06:57:49;97653.05;;;21.69
75811;BMP280;64449;50.016;19.954;2023-08-30T07:00:16;97655.98;;;21.67
75811;BMP280;64449;50.016;19.954;2023-08-30T07:02:41;97659.70;;;21.66
75811;BMP280;64449;50.016;19.954;2023-08-30T07:05:10;97662.31;;;21.65
75811;BMP280;64449;50.016;19.954;2023-08-30T07:07:35;97663.96;;;21.64
75811;BMP280;64449;50.016;19.954;2023-08-30T07:10:01;97667.41;;;21.64
75811;BMP280;64449;50.016;19.954;2023-08-30T07:12:28;97669.09;;;21.64
75811;BMP280;64449;50.016;19.954;2023-08-30T07:14:53;97669.55;;;21.65
75811;BMP280;64449;50.016;19.954;2023-08-30T07:17:19;97670.96;;;21.66
75811;BMP280;64449;50.016;19.954;2023-08-30T07:19:44;97674.30;;;21.69
75811;BMP280;64449;50.016;19.954;2023-08-30T07:22:10;97677.45;;;21.70
75811;BMP280;64449;50.016;19.954;2023-08-30T07:24:36;97682.12;;;21.69
75811;BMP280;64449;50.016;19.954;2023-08-30T07:27:01;97684.92;;;21.68
75811;BMP280;64449;50.016;19.954;2023-08-30T07:29:26;97688.67;;;21.67
75811;BMP280;64449;50.016;19.954;2023-08-30T07:31:52;97691.99;;;21.65
75811;BMP280;64449;50.016;19.954;2023-08-30T07:34:18;97693.48;;;21.64
75811;BMP280;64449;50.016;19.954;2023-08-30T07:36:44;97693.48;;;21.64
75811;BMP280;64449;50.016;19.954;2023-08-30T07:39:09;97691.33;;;21.61
75811;BMP280;64449;50.016;19.954;2023-08-30T07:41:35;97690.52;;;21.58
75811;BMP280;64449;50.016;19.954;2023-08-30T07:44:01;97696.39;;;21.55
75811;BMP280;64449;50.016;19.954;2023-08-30T07:46:26;97703.38;;;21.55
75811;BMP280;64449;50.016;19.954;2023-08-30T07:48:51;97705.43;;;21.48
75811;BMP280;64449;50.016;19.954;2023-08-30T07:51:17;97709.12;;;21.41
75811;BMP280;64449;50.016;19.954;2023-08-30T07:53:42;97704.74;;;21.34
75811;BMP280;64449;50.016;19.954;2023-08-30T07:56:08;97705.95;;;21.27
75811;BMP280;64449;50.016;19.954;2023-08-30T07:58:34;97710.32;;;21.21
75811;BMP280;64449;50.016;19.954;2023-08-30T08:00:59;97709.84;;;21.13
75811;BMP280;64449;50.016;19.954;2023-08-30T08:03:24;97703.23;;;21.08
75811;BMP280;64449;50.016;19.954;2023-08-30T08:05:50;97699.77;;;21.05
75811;BMP280;64449;50.016;19.954;2023-08-30T08:08:15;97699.39;;;21.03
75811;BMP280;64449;50.016;19.954;2023-08-30T08:10:42;97698.71;;;21.03
75811;BMP280;64449;50.016;19.954;2023-08-30T08:13:08;97701.09;;;21.06
75811;BMP280;64449;50.016;19.954;2023-08-30T08:15:33;97702.63;;;21.11
75811;BMP280;64449;50.016;19.954;2023-08-30T08:18:02;97703.52;;;21.16
75811;BMP280;64449;50.016;19.954;2023-08-30T08:20:29;97704.14;;;21.21
75811;BMP280;64449;50.016;19.954;2023-08-30T08:22:54;97703.35;;;21.29
75811;BMP280;64449;50.016;19.954;2023-08-30T08:25:20;97705.27;;;21.38
75811;BMP280;64449;50.016;19.954;2023-08-30T08:27:47;97703.36;;;21.43
75811;BMP280;64449;50.016;19.954;2023-08-30T08:30:13;97704.91;;;21.52
75811;BMP280;64449;50.016;19.954;2023-08-30T08:32:38;97707.58;;;21.62
75811;BMP280;64449;50.016;19.954;2023-08-30T08:35:04;97709.02;;;21.68
75811;BMP280;64449;50.016;19.954;2023-08-30T08:37:31;97708.13;;;21.73
75811;BMP280;64449;50.016;19.954;2023-08-30T08:39:57;97707.96;;;21.80
75811;BMP280;64449;50.016;19.954;2023-08-30T08:42:23;97706.42;;;21.86
75811;BMP280;64449;50.016;19.954;2023-08-30T08:44:54;97703.88;;;21.89
75811;BMP280;64449;50.016;19.954;2023-08-30T08:47:20;97704.13;;;21.90
75811;BMP280;64449;50.016;19.954;2023-08-30T08:49:50;97705.83;;;21.95
75811;BMP280;64449;50.016;19.954;2023-08-30T08:52:16;97704.23;;;22.00
75811;BMP280;64449;50.016;19.954;2023-08-30T08:54:42;97703.66;;;22.07
75811;BMP280;64449;50.016;19.954;2023-08-30T08:57:08;97699.19;;;22.10
75811;BMP280;64449;50.016;19.954;2023-08-30T08:59:33;97702.33;;;22.09
75811;BMP280;64449;50.016;19.954;2023-08-30T09:02:00;97706.83;;;22.13
75811;BMP280;64449;50.016;19.954;2023-08-30T09:04:26;97706.60;;;22.19
75811;BMP280;64449;50.016;19.954;2023-08-30T09:06:51;97704.66;;;22.24
75811;BMP280;64449;50.016;19.954;2023-08-30T09:09:17;97704.34;;;22.26
75811;BMP280;64449;50.016;19.954;2023-08-30T09:11:43;97706.03;;;22.28
75811;BMP280;64449;50.016;19.954;2023-08-30T09:14:09;97706.96;;;22.29
75811;BMP280;64449;50.016;19.954;2023-08-30T09:16:35;97704.35;;;22.32
75811;BMP280;64449;50.016;19.954;2023-08-30T09:19:02;97707.62;;;22.36
75811;BMP280;64449;50.016;19.954;2023-08-30T09:21:28;97705.95;;;22.37
75811;BMP280;64449;50.016;19.954;2023-08-30T09:24:01;97707.87;;;22.38
75811;BMP280;64449;50.016;19.954;2023-08-30T09:26:28;97709.77;;;22.41
75811;BMP280;64449;50.016;19.954;2023-08-30T09:28:55;97704.03;;;22.47
75811;BMP280;64449;50.016;19.954;2023-08-30T09:31:21;97701.55;;;22.55
75811;BMP280;64449;50.016;19.954;2023-08-30T09:33:46;97703.10;;;22.67
75811;BMP280;64449;50.016;19.954;2023-08-30T09:36:13;97705.38;;;22.88
75811;BMP280;64449;50.016;19.954;2023-08-30T09:38:39;97710.61;;;23.22
75811;BMP280;64449;50.016;19.954;2023-08-30T09:41:05;97708.38;;;23.58
75811;BMP280;64449;50.016;19.954;2023-08-30T09:43:32;97709.03;;;23.78
75811;BMP280;64449;50.016;19.954;2023-08-30T09:45:58;97711.61;;;23.80
75811;BMP280;64449;50.016;19.954;2023-08-30T09:48:28;97711.18;;;23.77
75811;BMP280;64449;50.016;19.954;2023-08-30T09:50:57;97707.24;;;23.68
75811;BMP280;64449;50.016;19.954;2023-08-30T09:53:26;97707.15;;;23.64
75811;BMP280;64449;50.016;19.954;2023-08-30T09:55:54;97709.31;;;23.59
75811;BMP280;64449;50.016;19.954;2023-08-30T09:58:23;97708.48;;;23.57
75811;BMP280;64449;50.016;19.954;2023-08-30T10:00:49;97700.77;;;23.61
75811;BMP280;64449;50.016;19.954;2023-08-30T10:03:15;97704.46;;;23.63
75811;BMP280;64449;50.016;19.954;2023-08-30T10:05:42;97698.53;;;23.64
75811;BMP280;64449;50.016;19.954;2023-08-30T10:08:07;97701.78;;;23.65
75811;BMP280;64449;50.016;19.954;2023-08-30T10:10:34;97703.29;;;23.64
75811;BMP280;64449;50.016;19.954;2023-08-30T10:13:01;97705.64;;;23.62
75811;BMP280;64449;50.016;19.954;2023-08-30T10:15:28;97718.73;;;23.58
75811;BMP280;64449;50.016;19.954;2023-08-30T10:17:58;97722.89;;;23.55
75811;BMP280;64449;50.016;19.954;2023-08-30T10:20:24;97732.39;;;23.48
75811;BMP280;64449;50.016;19.954;2023-08-30T10:22:51;97729.78;;;23.43
75811;BMP280;64449;50.016;19.954;2023-08-30T10:25:23;97732.58;;;23.36
75811;BMP280;64449;50.016;19.954;2023-08-30T10:27:50;97733.15;;;23.32
75811;BMP280;64449;50.016;19.954;2023-08-30T10:30:18;97731.80;;;23.28
75811;BMP280;64449;50.016;19.954;2023-08-30T10:32:44;97727.69;;;23.28
75811;BMP280;64449;50.016;19.954;2023-08-30T10:35:17;97730.29;;;23.32
75811;BMP280;64449;50.016;19.954;2023-08-30T10:37:56;97728.00;;;23.45
75811;BMP280;64449;50.016;19.954;2023-08-30T10:40:22;97720.33;;;23.56
75811;BMP280;64449;50.016;19.954;2023-08-30T10:42:58;97723.61;;;23.57
75811;BMP280;64449;50.016;19.954;2023-08-30T10:45:24;97723.38;;;23.52
75811;BMP280;64449;50.016;19.954;2023-08-30T10:47:54;97731.52;;;23.46
75811;BMP280;64449;50.016;19.954;2023-08-30T10:50:30;97730.80;;;23.38
75811;BMP280;64449;50.016;19.954;2023-08-30T10:52:57;97727.96;;;23.30
75811;BMP280;64449;50.016;19.954;2023-08-30T10:55:23;97721.20;;;23.25
75811;BMP280;64449;50.016;19.954;2023-08-30T10:57:59;97719.05;;;23.34
75811;BMP280;64449;50.016;19.954;2023-08-30T11:00:28;97713.79;;;23.53
75811;BMP280;64449;50.016;19.954;2023-08-30T11:02:53;97709.79;;;23.62
75811;BMP280;64449;50.016;19.954;2023-08-30T11:05:22;97702.40;;;23.67
75811;BMP280;64449;50.016;19.954;2023-08-30T11:07:49;97699.79;;;23.78
75811;BMP280;64449;50.016;19.954;2023-08-30T11:10:16;97688.85;;;23.93
75811;BMP280;64449;50.016;19.954;2023-08-30T11:12:42;97687.28;;;24.09
75811;BMP280;64449;50.016;19.954;2023-08-30T11:15:10;97689.59;;;24.23
75811;BMP280;64449;50.016;19.954;2023-08-30T11:17:35;97691.42;;;24.22
75811;BMP280;64449;50.016;19.954;2023-08-30T11:20:09;97695.98;;;24.16
75811;BMP280;64449;50.016;19.954;2023-08-30T11:22:43;97695.80;;;24.09
75811;BMP280;64449;50.016;19.954;2023-08-30T11:25:09;97697.11;;;24.03
75811;BMP280;64449;50.016;19.954;2023-08-30T11:27:36;97693.57;;;24.07
75811;BMP280;64449;50.016;19.954;2023-08-30T11:30:02;97690.42;;;24.20
75811;BMP280;64449;50.016;19.954;2023-08-30T11:32:34;97694.00;;;24.35
75811;BMP280;64449;50.016;19.954;2023-08-30T11:35:00;97701.75;;;24.36
75811;BMP280;64449;50.016;19.954;2023-08-30T11:37:29;97703.51;;;24.31
75811;BMP280;64449;50.016;19.954;2023-08-30T11:39:55;97695.17;;;24.30
75811;BMP280;64449;50.016;19.954;2023-08-30T11:42:21;97685.95;;;24.30
75811;BMP280;64449;50.016;19.954;2023-08-30T11:44:47;97685.79;;;24.25
75811;BMP280;64449;50.016;19.954;2023-08-30T11:47:24;97695.31;;;24.19
75811;BMP280;64449;50.016;19.954;2023-08-30T11:49:52;97698.17;;;24.11
75811;BMP280;64449;50.016;19.954;2023-08-30T11:52:19;97700.73;;;24.05
75811;BMP280;64449;50.016;19.954;2023-08-30T11:54:47;97703.45;;;23.97
75811;BMP280;64449;50.016;19.954;2023-08-30T11:57:13;97704.02;;;23.93
75811;BMP280;64449;50.016;19.954;2023-08-30T11:59:38;97702.13;;;23.89
75811;BMP280;64449;50.016;19.954;2023-08-30T12:02:06;97698.42;;;23.83
75811;BMP280;64449;50.016;19.954;2023-08-30T12:04:32;97700.11;;;23.78
75811;BMP280;64449;50.016;19.954;2023-08-30T12:06:58;97703.44;;;23.65
75811;BMP280;64449;50.016;19.954;2023-08-30T12:09:33;97702.95;;;23.59
75811;BMP280;64449;50.016;19.954;2023-08-30T12:12:09;97702.13;;;23.54
75811;BMP280;64449;50.016;19.954;2023-08-30T12:14:36;97695.78;;;23.45
75811;BMP280;64449;50.016;19.954;2023-08-30T12:17:02;97699.60;;;23.36
75811;BMP280;64449;50.016;19.954;2023-08-30T12:19:28;97708.52;;;23.24
75811;BMP280;64449;50.016;19.954;2023-08-30T12:21:54;97707.45;;;23.10
75811;BMP280;64449;50.016;19.954;2023-08-30T12:24:19;97696.48;;;22.94
75811;BMP280;64449;50.016;19.954;2023-08-30T12:26:45;97693.83;;;22.84
75811;BMP280;64449;50.016;19.954;2023-08-30T12:29:10;97700.23;;;22.75
75811;BMP280;64449;50.016;19.954;2023-08-30T12:31:36;97706.38;;;22.64
75811;BMP280;64449;50.016;19.954;2023-08-30T12:34:02;97710.37;;;22.52
75811;BMP280;64449;50.016;19.954;2023-08-30T12:36:28;97708.02;;;22.41
75811;BMP280;64449;50.016;19.954;2023-08-30T12:38:53;97706.16;;;22.34
75811;BMP280;64449;50.016;19.954;2023-08-30T12:41:18;97704.38;;;22.27
75811;BMP280;64449;50.016;19.954;2023-08-30T12:43:46;97702.61;;;22.22
75811;BMP280;64449;50.016;19.954;2023-08-30T12:46:11;97706.42;;;22.15
75811;BMP280;64449;50.016;19.954;2023-08-30T12:48:36;97708.35;;;22.08
75811;BMP280;64449;50.016;19.954;2023-08-30T12:51:02;97702.48;;;21.99
75811;BMP280;64449;50.016;19.954;2023-08-30T12:53:28;97701.81;;;21.92
75811;BMP280;64449;50.016;19.954;2023-08-30T12:55:54;97703.52;;;21.89
75811;BMP280;64449;50.016;19.954;2023-08-30T12:58:19;97707.17;;;21.89
75811;BMP280;64449;50.016;19.954;2023-08-30T13:00:44;97714.38;;;21.88
75811;BMP280;64449;50.016;19.954;2023-08-30T13:03:10;97711.60;;;21.90
75811;BMP280;64449;50.016;19.954;2023-08-30T13:05:35;97709.30;;;21.92
75811;BMP280;64449;50.016;19.954;2023-08-30T13:08:01;97710.58;;;21.93
75811;BMP280;64449;50.016;19.954;2023-08-30T13:10:27;97708.48;;;21.93
75811;BMP280;64449;50.016;19.954;2023-08-30T13:12:53;97710.42;;;21.94
75811;BMP280;64449;50.016;19.954;2023-08-30T13:15:18;97718.34;;;21.96
75811;BMP280;64449;50.016;19.954;2023-08-30T13:17:44;97722.02;;;21.97
75811;BMP280;64449;50.016;19.954;2023-08-30T13:20:10;97727.52;;;21.97
75811;BMP280;64449;50.016;19.954;2023-08-30T13:22:36;97729.55;;;22.00
75811;BMP280;64449;50.016;19.954;2023-08-30T13:25:02;97732.18;;;22.03
75811;BMP280;64449;50.016;19.954;2023-08-30T13:27:29;97730.80;;;22.08
75811;BMP280;64449;50.016;19.954;2023-08-30T13:29:55;97730.77;;;22.13
75811;BMP280;64449;50.016;19.954;2023-08-30T13:32:20;97733.98;;;22.19
75811;BMP280;64449;50.016;19.954;2023-08-30T13:34:46;97731.29;;;22.21
75811;BMP280;64449;50.016;19.954;2023-08-30T13:37:13;97731.77;;;22.23
75811;BMP280;64449;50.016;19.954;2023-08-30T13:39:39;97734.58;;;22.25
75811;BMP280;64449;50.016;19.954;2023-08-30T13:42:05;97733.67;;;22.24
75811;BMP280;64449;50.016;19.954;2023-08-30T13:44:30;97736.36;;;22.25
75811;BMP280;64449;50.016;19.954;2023-08-30T13:46:57;97735.19;;;22.22
75811;BMP280;64449;50.016;19.954;2023-08-30T13:49:23;97733.98;;;22.21
75811;BMP280;64449;50.016;19.954;2023-08-30T13:51:48;97734.07;;;22.20
75811;BMP280;64449;50.016;19.954;2023-08-30T13:54:14;97730.93;;;22.17
75811;BMP280;64449;50.016;19.954;2023-08-30T13:56:39;97720.28;;;22.11
75811;BMP280;64449;50.016;19.954;2023-08-30T13:59:04;97709.73;;;22.11
75811;BMP280;64449;50.016;19.954;2023-08-30T14:01:31;97700.15;;;22.19